createdAt,value
2022-08-08T00:00:55.026Z,18.50
2022-08-08T00:02:52.514Z,18.64
2022-08-08T00:06:03.220Z,18.59
2022-08-08T00:09:16.629Z,18.41
2022-08-08T00:12:13.480Z,18.42
2022-08-08T00:15:17.611Z,18.52
2022-08-08T00:18:50.164Z,18.07
2022-08-08T00:21:51.388Z,18.08
2022-08-08T00:24:51.162Z,18.31
2022-08-08T00:27:50.872Z,18.45
2022-08-08T00:31:00.798Z,18.93
2022-08-08T00:34:40.441Z,18.39
2022-08-08T00:38:16.745Z,18.99
2022-08-08T00:41:55.185Z,18.55
2022-08-08T00:45:38.422Z,18.26
2022-08-08T00:49:22.190Z,17.97
2022-08-08T00:52:24.312Z,17.71
2022-08-08T00:55:54.185Z,17.63
2022-08-08T00:58:54.537Z,17.21
2022-08-08T01:02:04.444Z,17.09
2022-08-08T01:05:59.213Z,17.06
2022-08-08T01:09:35.807Z,16.82
2022-08-08T01:13:14.957Z,17.23
2022-08-08T01:16:39.411Z,17.33
2022-08-08T01:20:02.159Z,18.03
2022-08-08T01:24:06.129Z,18.03
2022-08-08T01:27:10.578Z,17.34
2022-08-08T01:30:31.512Z,16.96
2022-08-08T01:34:14.255Z,16.88
2022-08-08T01:37:56.664Z,16.53
2022-08-08T01:41:02.754Z,16.55
2022-08-08T01:44:06.899Z,16.41
2022-08-08T01:48:03.687Z,16.99
2022-08-08T01:51:31.592Z,17.02
2022-08-08T01:55:25.939Z,16.95
2022-08-08T01:58:39.483Z,16.89
2022-08-08T02:02:42.752Z,17.12
2022-08-08T02:05:56.898Z,16.76
2022-08-08T02:09:16.085Z,16.73
2022-08-08T02:12:48.398Z,16.60
2022-08-08T02:15:52.562Z,16.58
2022-08-08T02:19:01.207Z,16.34
2022-08-08T02:22:31.360Z,16.88
2022-08-08T02:25:51.748Z,17.49
2022-08-08T02:29:07.849Z,17.38
2022-08-08T02:32:28.757Z,17.16
2022-08-08T02:36:03.883Z,17.04
2022-08-08T02:39:40.907Z,16.80
2022-08-08T02:42:42.030Z,16.27
2022-08-08T02:46:00.890Z,15.90
2022-08-08T02:49:47.803Z,16.25
2022-08-08T02:53:07.480Z,16.29
2022-08-08T02:56:23.039Z,16.01
2022-08-08T03:00:15.937Z,16.16
2022-08-08T03:05:03.804Z,16.61
2022-08-08T03:07:13.352Z,16.57
2022-08-08T03:10:36.273Z,16.34
2022-08-08T03:16:01.430Z,16.91
2022-08-08T03:18:04.532Z,16.86
2022-08-08T03:21:10.046Z,16.25
2022-08-08T03:24:16.944Z,15.79
2022-08-08T03:27:27.266Z,16.16
2022-08-08T03:30:25.884Z,16.94
2022-08-08T03:33:55.568Z,17.59
2022-08-08T03:36:43.499Z,17.98
2022-08-08T03:40:00.140Z,17.46
2022-08-08T03:43:18.047Z,16.58
2022-08-08T03:46:19.762Z,16.06
2022-08-08T03:49:38.139Z,15.89
2022-08-08T03:52:44.455Z,15.40
2022-08-08T03:55:57.621Z,15.14
2022-08-08T03:59:01.647Z,15.25
2022-08-08T04:02:13.200Z,15.16
2022-08-08T04:05:19.464Z,15.09
2022-08-08T04:08:32.946Z,15.37
2022-08-08T04:11:48.426Z,15.60
2022-08-08T04:14:52.143Z,15.82
2022-08-08T04:17:59.261Z,16.03
2022-08-08T04:20:57.835Z,15.68
2022-08-08T04:24:12.059Z,15.78
2022-08-08T04:27:19.756Z,16.77
2022-08-08T04:30:40.024Z,17.15
2022-08-08T04:33:42.711Z,16.59
2022-08-08T04:36:41.613Z,16.05
2022-08-08T04:40:03.666Z,16.68
2022-08-08T04:43:00.765Z,17.01
2022-08-08T04:46:02.885Z,17.32
2022-08-08T04:49:00.860Z,17.71
2022-08-08T04:51:58.815Z,17.95
2022-08-08T04:54:57.018Z,18.03
2022-08-08T04:57:55.021Z,17.75
2022-08-08T05:00:57.047Z,17.61
2022-08-08T05:04:11.403Z,17.54
2022-08-08T05:07:14.927Z,17.35
2022-08-08T05:10:13.230Z,17.43
2022-08-08T05:13:17.481Z,17.79
2022-08-08T05:16:54.854Z,17.95
2022-08-08T05:20:11.575Z,17.73
2022-08-08T05:22:59.123Z,17.44
2022-08-08T05:26:01.767Z,17.37
2022-08-08T05:29:04.740Z,17.69
2022-08-08T05:32:08.117Z,17.70
2022-08-08T05:35:06.357Z,17.75
2022-08-08T05:38:30.719Z,17.83
2022-08-08T05:41:27.825Z,17.93
2022-08-08T05:44:31.125Z,18.08
2022-08-08T05:47:30.013Z,18.13
2022-08-08T05:50:48.112Z,18.06
2022-08-08T05:54:27.179Z,17.95
2022-08-08T05:57:57.714Z,18.14
2022-08-08T06:00:35.646Z,18.31
2022-08-08T06:03:34.436Z,18.30
2022-08-08T06:06:32.451Z,18.33
2022-08-08T06:09:58.256Z,18.55
2022-08-08T06:12:50.758Z,18.57
2022-08-08T06:15:50.907Z,18.60
2022-08-08T06:19:16.479Z,18.56
2022-08-08T06:26:36.176Z,18.78
2022-08-08T06:29:26.903Z,18.81
2022-08-08T06:32:28.511Z,18.92
2022-08-08T06:36:06.512Z,19.16
2022-08-08T06:38:44.910Z,19.04
2022-08-08T06:42:02.672Z,19.23
2022-08-08T06:45:11.031Z,19.34
2022-08-08T06:48:11.247Z,19.43
2022-08-08T06:51:11.218Z,19.44
2022-08-08T06:54:09.526Z,19.40
2022-08-08T06:57:07.041Z,19.39
2022-08-08T07:00:12.473Z,19.26
2022-08-08T07:03:51.513Z,19.52
2022-08-08T07:06:33.422Z,19.62
2022-08-08T07:09:45.564Z,19.72
2022-08-08T07:13:01.289Z,19.76
2022-08-08T07:16:28.967Z,19.81
2022-08-08T07:19:41.900Z,19.96
2022-08-08T07:23:02.393Z,19.99
2022-08-08T07:26:03.236Z,19.97
2022-08-08T07:29:05.755Z,20.12
2022-08-08T07:32:06.433Z,20.14
2022-08-08T07:35:06.116Z,20.15
2022-08-08T07:38:20.614Z,20.29
2022-08-08T07:41:58.774Z,20.48
2022-08-08T07:44:49.774Z,20.35
2022-08-08T07:47:51.635Z,20.55
2022-08-08T07:50:50.219Z,20.54
2022-08-08T07:54:01.287Z,20.48
2022-08-08T07:57:01.903Z,20.76
2022-08-08T08:00:13.200Z,20.84
2022-08-08T08:03:43.250Z,20.75
2022-08-08T08:06:43.299Z,20.63
2022-08-08T08:09:42.452Z,20.63
2022-08-08T08:12:43.510Z,20.94
2022-08-08T08:15:44.205Z,21.00
2022-08-08T08:18:55.635Z,21.18
2022-08-08T08:21:58.265Z,21.15
2022-08-08T08:25:07.950Z,21.26
2022-08-08T08:28:09.295Z,21.37
2022-08-08T08:31:08.076Z,21.30
2022-08-08T08:34:08.335Z,21.35
2022-08-08T08:37:08.755Z,21.44
2022-08-08T08:40:10.818Z,21.33
2022-08-08T08:43:15.399Z,21.50
2022-08-08T08:46:19.006Z,21.63
2022-08-08T08:49:17.366Z,21.74
2022-08-08T08:52:17.638Z,21.65
2022-08-08T08:55:20.235Z,21.63
2022-08-08T08:58:39.812Z,21.69
2022-08-08T09:01:43.823Z,22.02
2022-08-08T09:04:56.089Z,22.24
2022-08-08T09:08:12.304Z,22.39
2022-08-08T09:11:11.111Z,22.31
2022-08-08T09:14:08.278Z,22.36
2022-08-08T09:17:12.930Z,22.35
2022-08-08T09:21:56.668Z,22.56
2022-08-08T09:23:33.625Z,22.64
2022-08-08T09:26:47.190Z,22.45
2022-08-08T09:30:02.345Z,22.36
2022-08-08T09:33:55.644Z,22.60
2022-08-08T09:36:22.682Z,22.56
2022-08-08T09:39:22.153Z,22.42
2022-08-08T09:42:23.405Z,22.54
2022-08-08T09:46:00.960Z,22.55
2022-08-08T09:48:52.271Z,22.58
2022-08-08T09:52:06.298Z,22.52
2022-08-08T09:55:05.529Z,22.51
2022-08-08T09:58:07.328Z,22.52
2022-08-08T10:01:14.361Z,22.49
2022-08-08T10:04:15.118Z,22.82
2022-08-08T10:07:36.033Z,23.01
2022-08-08T10:10:50.920Z,23.10
2022-08-08T10:13:57.270Z,22.96
2022-08-08T10:16:55.877Z,23.25
2022-08-08T10:20:00.657Z,23.54
2022-08-08T10:23:01.530Z,23.56
2022-08-08T10:25:59.092Z,23.82
2022-08-08T10:29:06.526Z,24.02
2022-08-08T10:32:21.911Z,24.01
2022-08-08T10:36:08.944Z,23.91
2022-08-08T10:38:41.275Z,23.77
2022-08-08T10:41:59.035Z,23.59
2022-08-08T10:45:02.915Z,23.22
2022-08-08T10:48:10.590Z,23.32
2022-08-08T10:51:14.537Z,23.28
2022-08-08T10:54:20.400Z,23.45
2022-08-08T10:57:17.322Z,23.94
2022-08-08T11:00:48.380Z,24.01
2022-08-08T11:04:00.370Z,23.74
2022-08-08T11:07:00.612Z,23.61
2022-08-08T11:10:19.891Z,23.16
2022-08-08T11:13:29.763Z,23.07
2022-08-08T11:16:32.571Z,23.24
2022-08-08T11:19:30.292Z,23.40
2022-08-08T11:22:32.402Z,23.48
2022-08-08T11:25:52.237Z,23.54
2022-08-08T11:28:50.302Z,23.62
2022-08-08T11:31:50.448Z,23.62
2022-08-08T11:38:36.587Z,23.69
2022-08-08T11:41:21.213Z,23.74
2022-08-08T11:44:28.991Z,23.55
2022-08-08T11:47:39.175Z,23.50
2022-08-08T11:50:36.972Z,23.68
2022-08-08T11:53:42.643Z,23.87
2022-08-08T11:56:56.632Z,24.05
2022-08-08T12:00:02.561Z,24.18
2022-08-08T12:03:36.446Z,24.32
2022-08-08T12:06:33.637Z,24.20
2022-08-08T12:09:59.684Z,24.56
2022-08-08T12:12:52.146Z,24.57
2022-08-08T12:15:53.734Z,24.75
2022-08-08T12:18:53.624Z,24.64
2022-08-08T12:21:59.780Z,24.37
2022-08-08T12:25:05.434Z,24.33
2022-08-08T12:28:22.444Z,24.33
2022-08-08T12:31:30.381Z,24.39
2022-08-08T12:34:39.988Z,24.43
2022-08-08T12:37:39.976Z,24.62
2022-08-08T12:40:56.278Z,24.94
2022-08-08T12:44:00.609Z,25.03
2022-08-08T12:47:00.204Z,24.97
2022-08-08T12:50:00.427Z,25.13
2022-08-08T12:52:57.504Z,25.03
2022-08-08T12:56:17.678Z,25.27
2022-08-08T12:59:18.296Z,25.27
2022-08-08T13:02:31.745Z,25.23
2022-08-08T13:06:04.245Z,25.26
2022-08-08T13:08:53.690Z,25.49
2022-08-08T13:12:27.051Z,25.61
2022-08-08T13:15:12.400Z,25.83
2022-08-08T13:18:13.607Z,25.54
2022-08-08T13:21:14.299Z,25.33
2022-08-08T13:24:19.008Z,25.10
2022-08-08T13:27:35.407Z,25.00
2022-08-08T13:30:33.595Z,25.01
2022-08-08T13:33:41.885Z,25.02
2022-08-08T13:36:40.860Z,25.29
2022-08-08T13:39:41.721Z,25.33
2022-08-08T13:42:39.199Z,25.38
2022-08-08T13:45:37.019Z,25.41
2022-08-08T13:48:34.076Z,25.15
2022-08-08T13:51:37.604Z,25.10
2022-08-08T13:54:40.785Z,25.08
2022-08-08T13:57:46.262Z,25.41
2022-08-08T14:00:59.288Z,25.52
2022-08-08T14:04:00.375Z,25.37
2022-08-08T14:07:02.136Z,25.16
2022-08-08T14:10:11.897Z,24.91
2022-08-08T14:13:30.494Z,25.05
2022-08-08T14:16:30.450Z,25.12
2022-08-08T14:19:55.665Z,24.98
2022-08-08T14:22:56.047Z,24.79
2022-08-08T14:26:00.675Z,24.98
2022-08-08T14:29:27.035Z,25.21
2022-08-08T14:32:30.058Z,24.98
2022-08-08T14:35:35.190Z,24.96
2022-08-08T14:38:52.055Z,25.06
2022-08-08T14:41:54.456Z,24.97
2022-08-08T14:45:00.602Z,25.32
2022-08-08T14:48:02.828Z,25.52
2022-08-08T14:51:07.511Z,25.79
2022-08-08T14:54:04.426Z,26.00
2022-08-08T14:57:03.993Z,25.82
2022-08-08T15:00:02.932Z,25.80
2022-08-08T15:03:14.041Z,25.71
2022-08-08T15:06:12.141Z,25.45
2022-08-08T15:09:13.990Z,25.27
2022-08-08T15:12:11.416Z,25.29
2022-08-08T15:15:09.667Z,25.40
2022-08-08T15:18:08.239Z,25.55
2022-08-08T15:21:08.565Z,25.66
2022-08-08T15:24:06.367Z,25.17
2022-08-08T15:27:57.819Z,25.23
2022-08-08T15:30:26.849Z,24.91
2022-08-08T15:33:35.714Z,25.24
2022-08-08T15:36:42.515Z,25.50
2022-08-08T15:39:40.639Z,25.28
2022-08-08T15:42:37.610Z,25.33
2022-08-08T15:45:36.756Z,25.50
2022-08-08T15:48:36.581Z,25.43
2022-08-08T15:51:34.385Z,25.75
2022-08-08T15:54:39.028Z,25.59
2022-08-08T15:57:39.779Z,25.65
2022-08-08T16:00:37.659Z,25.82
2022-08-08T16:03:46.003Z,25.90
2022-08-08T16:06:50.556Z,25.89
2022-08-08T16:13:09.019Z,25.78
2022-08-08T16:13:35.016Z,25.78
2022-08-08T16:16:22.142Z,25.79
2022-08-08T16:19:19.807Z,25.69
2022-08-08T16:22:38.874Z,25.65
2022-08-08T16:25:46.171Z,25.43
2022-08-08T16:28:51.531Z,25.39
2022-08-08T16:31:50.025Z,25.20
2022-08-08T16:34:47.723Z,25.11
2022-08-08T16:37:47.428Z,24.98
2022-08-08T16:40:44.359Z,25.07
2022-08-08T16:43:49.038Z,25.05
2022-08-08T16:46:48.909Z,25.00
2022-08-08T16:50:01.389Z,24.67
2022-08-08T16:55:04.081Z,24.36
2022-08-08T16:56:18.713Z,24.12
2022-08-08T16:59:21.488Z,24.14
2022-08-08T17:02:37.983Z,24.10
2022-08-08T17:05:45.023Z,24.32
2022-08-08T17:08:42.662Z,24.39
2022-08-08T17:11:48.818Z,24.38
2022-08-08T17:14:48.729Z,24.33
2022-08-08T17:18:02.750Z,24.13
2022-08-08T17:21:01.836Z,24.14
2022-08-08T17:24:02.670Z,24.10
2022-08-08T17:27:01.456Z,24.02
2022-08-08T17:29:58.917Z,24.05
2022-08-08T17:34:36.901Z,24.06
2022-08-08T17:36:22.779Z,24.04
2022-08-08T17:39:45.828Z,24.15
2022-08-08T17:42:47.227Z,24.42
2022-08-08T17:45:47.429Z,24.23
2022-08-08T17:48:47.857Z,24.34
2022-08-08T17:51:51.666Z,24.54
2022-08-08T17:54:55.905Z,24.47
2022-08-08T17:57:53.747Z,24.49
2022-08-08T18:00:56.157Z,24.28
2022-08-08T18:03:54.680Z,24.06
2022-08-08T18:06:57.001Z,24.07
2022-08-08T18:09:54.519Z,24.17
2022-08-08T18:12:51.380Z,24.09
2022-08-08T18:15:48.814Z,23.98
2022-08-08T18:18:58.406Z,23.86
2022-08-08T18:22:02.419Z,23.98
2022-08-08T18:25:03.093Z,23.76
2022-08-08T18:28:00.663Z,23.75
2022-08-08T18:30:58.537Z,23.67
2022-08-08T18:34:25.085Z,23.43
2022-08-08T18:37:33.623Z,23.20
2022-08-08T18:40:35.189Z,23.31
2022-08-08T18:43:42.777Z,23.19
2022-08-08T18:46:55.326Z,23.47
2022-08-08T18:49:58.983Z,23.45
2022-08-08T18:52:57.876Z,23.42
2022-08-08T18:55:54.890Z,23.43
2022-08-08T18:58:53.676Z,23.33
2022-08-08T19:02:28.782Z,23.30
2022-08-08T19:05:08.225Z,23.32
2022-08-08T19:08:10.176Z,23.38
2022-08-08T19:11:22.552Z,23.02
2022-08-08T19:14:20.334Z,23.12
2022-08-08T19:17:28.685Z,22.94
2022-08-08T19:20:26.968Z,22.84
2022-08-08T19:23:23.416Z,22.51
2022-08-08T19:26:30.550Z,22.51
2022-08-08T19:29:28.623Z,22.37
2022-08-08T19:32:25.861Z,22.48
2022-08-08T19:35:45.329Z,22.51
2022-08-08T19:38:43.783Z,22.34
2022-08-08T19:41:40.750Z,22.08
2022-08-08T19:44:45.482Z,21.95
2022-08-08T19:47:49.384Z,21.73
2022-08-08T19:50:47.648Z,21.67
2022-08-08T19:53:50.983Z,21.74
2022-08-08T19:56:50.793Z,21.57
2022-08-08T19:59:47.964Z,21.33
2022-08-08T20:02:50.597Z,21.25
2022-08-08T20:06:15.311Z,21.05
2022-08-08T20:09:09.081Z,21.08
2022-08-08T20:12:09.348Z,21.26
2022-08-08T20:15:10.389Z,21.25
2022-08-08T20:18:15.493Z,21.08
2022-08-08T20:21:14.430Z,21.06
2022-08-08T20:24:12.009Z,20.93
2022-08-08T20:27:10.044Z,20.78
2022-08-08T20:30:52.422Z,20.80
2022-08-08T20:34:28.890Z,20.79
2022-08-08T20:36:52.643Z,20.79
2022-08-08T20:39:51.729Z,20.55
2022-08-08T20:42:54.698Z,20.55
2022-08-08T20:45:57.591Z,20.52
2022-08-08T20:49:00.950Z,20.51
2022-08-08T20:51:59.903Z,20.49
2022-08-08T20:54:58.203Z,20.32
2022-08-08T20:57:57.989Z,20.24
2022-08-08T21:00:54.846Z,20.12
2022-08-08T21:04:00.129Z,20.00
2022-08-08T21:06:59.360Z,19.82
2022-08-08T21:10:07.659Z,19.92
2022-08-08T21:13:10.599Z,19.82
2022-08-08T21:16:18.164Z,19.72
2022-08-08T21:19:24.057Z,19.54
2022-08-08T21:22:31.983Z,19.47
2022-08-08T21:25:29.076Z,19.43
2022-08-08T21:28:35.501Z,19.55
2022-08-08T21:31:53.446Z,19.51
2022-08-08T21:34:50.642Z,19.64
2022-08-08T21:37:54.955Z,19.62
2022-08-08T21:40:55.925Z,19.84
2022-08-08T21:43:53.963Z,19.86
2022-08-08T21:48:07.509Z,19.73
2022-08-08T21:50:11.785Z,19.39
2022-08-08T21:54:35.308Z,19.28
2022-08-08T21:56:31.359Z,19.05
2022-08-08T22:00:01.880Z,19.01
2022-08-08T22:02:53.888Z,19.13
2022-08-08T22:05:51.918Z,18.97
2022-08-08T22:08:59.158Z,18.91
2022-08-08T22:12:08.846Z,18.97
2022-08-08T22:15:07.687Z,18.87
2022-08-08T22:18:05.008Z,18.70
2022-08-08T22:21:15.773Z,18.73
2022-08-08T22:24:13.677Z,18.87
2022-08-08T22:27:11.168Z,18.94
2022-08-08T22:30:13.839Z,18.99
2022-08-08T22:34:11.240Z,18.75
2022-08-08T22:36:34.377Z,18.54
2022-08-08T22:39:45.861Z,18.59
2022-08-08T22:42:49.898Z,18.33
2022-08-08T22:45:52.904Z,18.18
2022-08-08T22:48:54.566Z,18.21
2022-08-08T22:51:52.132Z,18.38
2022-08-08T22:55:04.429Z,18.48
2022-08-08T22:58:03.520Z,18.80
2022-08-08T23:01:02.262Z,19.12
2022-08-08T23:04:32.517Z,18.65
2022-08-08T23:07:49.303Z,18.37
2022-08-08T23:10:52.736Z,18.32
2022-08-08T23:13:53.565Z,18.75
2022-08-08T23:16:59.538Z,19.13
2022-08-08T23:19:56.868Z,19.19
2022-08-08T23:22:55.044Z,18.88
2022-08-08T23:25:52.076Z,18.65
2022-08-08T23:28:48.896Z,18.31
2022-08-08T23:31:45.841Z,18.35
2022-08-08T23:36:06.978Z,18.42
2022-08-08T23:39:07.340Z,18.56
2022-08-08T23:42:06.703Z,18.68
2022-08-08T23:45:06.408Z,18.88
2022-08-08T23:49:06.560Z,19.10
2022-08-08T23:51:42.110Z,18.99
2022-08-08T23:55:00.296Z,18.90
2022-08-08T23:58:01.854Z,18.73
